Cfl Performer — PHLY — position and weather

sailwx.info

Track history (hours):
 
Tides and Currents Weather Stations Pressure Air Temp Water Temp Dewpoint Dewpoint Depression Visibility Wind Speed Wind Dir Waves Ship Positions

Cfl Performer

Last reported at 2018-Feb-21 11:00 UTC. Time now 2018-Feb-21 11:48 UTC.
Position N 54°34' E 012°26'.

Length 117 m; draft 3.9 m.

Type: Cargo ship. MMSI: 244989000.

Date/timePositionNaut miles runAvg speedWind from/ knotsBaromVisibWave heightAir tempDewpointWater temp
2018-Feb-21 11:00N 54°34' E 012°26'611.1
2018-Feb-21 10:30N 54°31' E 012°18'510.6
2018-Feb-21 10:00N 54°27' E 012°13'510.5
2018-Feb-21 09:28N 54°24' E 012°05'611.0
2018-Feb-21 08:54N 54°24' E 011°54'511.1
2018-Feb-21 08:30N 54°25' E 011°46'611.2
2018-Feb-21 08:00N 54°27' E 011°38'611.2
2018-Feb-21 07:30N 54°29' E 011°29'511.0
2018-Feb-21 07:00N 54°32' E 011°20'510.5
2018-Feb-21 06:30N 54°34' E 011°12'510.0
2018-Feb-21 06:00N 54°35' E 011°04'611.1
2018-Feb-21 05:30N 54°34' E 010°54'611.7
2018-Feb-21 05:00N 54°34' E 010°44'611.5
2018-Feb-21 04:30N 54°33' E 010°34'611.4
2018-Feb-21 04:00N 54°31' E 010°25'5 9.7
2018-Feb-21 03:28N 54°29' E 010°17'10 3.0
2018-Feb-21 00:13N 54°22' E 010°05'3 7.5
2018-Feb-20 23:46N 54°21' E 009°59'3 3.6
2018-Feb-20 22:50N 54°21' E 009°53'3 8.6
2018-Feb-20 22:30N 54°22' E 009°49'4 8.6
2018-Feb-20 22:00N 54°19' E 009°43'4 7.8
2018-Feb-20 21:30N 54°17' E 009°38'2 3.4
2018-Feb-20 21:00N 54°15' E 009°37'3 6.0
2018-Feb-20 20:30N 54°12' E 009°34'4 8.6
2018-Feb-20 20:00N 54°11' E 009°28'4 8.7
2018-Feb-20 19:30N 54°09' E 009°21'4 8.5
2018-Feb-20 19:00N 54°05' E 009°19'4 8.1
2018-Feb-20 18:30N 54°01' E 009°18'4 8.5
2018-Feb-20 18:00N 53°57' E 009°14'0 1.0
2018-Feb-20 17:30N 53°57' E 009°14'4 7.7
2018-Feb-20 17:01N 53°54' E 009°09'0 0.6
2018-Feb-20 16:30N 53°54' E 009°09'2 4.1
2018-Feb-20 16:00N 53°53' E 009°05'611.6
2018-Feb-20 15:30N 53°51' E 008°56'613.0
2018-Feb-20 15:00N 53°51' E 008°45'713.4
2018-Feb-20 14:30N 53°57' E 008°39'612.8
2018-Feb-20 14:00N 53°58' E 008°28'612.7
2018-Feb-20 13:30N 53°60' E 008°18'510.5
2018-Feb-20 13:00N 53°59' E 008°09'612.6
2018-Feb-20 12:30N 53°58' E 007°58'713.0
2018-Feb-20 11:56N 53°56' E 007°46'10411.6
2018-Feb-20 03:01N 53°27' E 004°58'010.7
2018-Feb-20 03:00N 53°27' E 004°58'2010.2
2018-Feb-20 01:00N 53°12' E 004°34'610.9
2018-Feb-20 00:27N 53°07' E 004°29'510.9
2018-Feb-19 23:59N 53°03' E 004°25'611.1
2018-Feb-19 23:26N 52°57' E 004°20'511.1
2018-Feb-19 23:00N 52°53' E 004°17'610.8
2018-Feb-19 22:29N 52°48' E 004°12'610.9
2018-Feb-19 21:59N 52°43' E 004°08'511.0
2018-Feb-19 21:30N 52°38' E 004°06'510.4
2018-Feb-19 21:00N 52°33' E 004°09'611.2
2018-Feb-19 20:30N 52°31' E 004°17'510.8
2018-Feb-19 20:00N 52°29' E 004°26'510.5
2018-Feb-19 19:30N 52°28' E 004°34'1 2.4
2018-Feb-19 19:00N 52°28' E 004°36'1 2.0
2018-Feb-19 18:30N 52°28' E 004°38'0 0.1
2018-Feb-19 17:59N 52°28' E 004°38'0 0.0
2018-Feb-19 17:29N 52°28' E 004°38'0 0.0
2018-Feb-19 16:59N 52°28' E 004°38'0 0.0
2018-Feb-19 16:29N 52°28' E 004°38'0 0.0
2018-Feb-19 15:59N 52°28' E 004°38'0 0.0
2018-Feb-19 15:29N 52°28' E 004°38'0 0.0
2018-Feb-19 14:59N 52°28' E 004°38'0 0.0
2018-Feb-19 14:29N 52°28' E 004°38'0 0.0
2018-Feb-19 13:59N 52°28' E 004°38'0 0.0
2018-Feb-19 13:29N 52°28' E 004°38'0 0.0
2018-Feb-19 12:59N 52°28' E 004°38'0 0.0
2018-Feb-19 12:29N 52°28' E 004°38'0 0.0
2018-Feb-19 11:59N 52°28' E 004°38'0 0.0
2018-Feb-19 11:29N 52°28' E 004°38'0 0.1
2018-Feb-19 10:59N 52°28' E 004°38'0 0.0
2018-Feb-19 10:29N 52°28' E 004°38'0 0.0
2018-Feb-19 09:15N 52°28' E 004°38'0 0.0
2018-Feb-19 09:00N 52°28' E 004°38'0 0.0
2018-Feb-19 08:24N 52°28' E 004°38'0 0.0
2018-Feb-19 08:00N 52°28' E 004°38'0 0.0
2018-Feb-19 07:30N 52°28' E 004°38'0 0.0
2018-Feb-19 07:00N 52°28' E 004°38'0 0.0
2018-Feb-19 06:30N 52°28' E 004°38'0 0.0
2018-Feb-19 06:00N 52°28' E 004°38'0 0.0
2018-Feb-19 05:30N 52°28' E 004°38'0 0.0
2018-Feb-19 05:00N 52°28' E 004°38'0 0.0
2018-Feb-19 04:30N 52°28' E 004°38'0 0.0
2018-Feb-19 04:00N 52°28' E 004°38'0 0.0
2018-Feb-19 03:30N 52°28' E 004°38'0 0.0
2018-Feb-19 03:00N 52°28' E 004°38'0 0.0
2018-Feb-19 02:30N 52°28' E 004°38'0 0.0
2018-Feb-19 02:00N 52°28' E 004°38'0 0.0
2018-Feb-19 01:27N 52°28' E 004°38'0 0.0
2018-Feb-19 01:00N 52°28' E 004°38'0 0.0
2018-Feb-19 00:30N 52°28' E 004°38'0 0.0
2018-Feb-19 00:00N 52°28' E 004°38'0 0.0
2018-Feb-18 23:30N 52°28' E 004°38'0 0.0
2018-Feb-18 23:00N 52°28' E 004°38'0 0.0
2018-Feb-18 22:30N 52°28' E 004°38'0 0.0
2018-Feb-18 21:57N 52°28' E 004°38'0 0.0
2018-Feb-18 21:30N 52°28' E 004°38'0 0.0
2018-Feb-18 21:00N 52°28' E 004°38'0 0.0
2018-Feb-18 20:30N 52°28' E 004°38'0 0.0
2018-Feb-18 20:00N 52°28' E 004°38'0 0.0
2018-Feb-18 19:27N 52°28' E 004°38'0 0.0
2018-Feb-18 19:00N 52°28' E 004°38'0 0.0
2018-Feb-18 18:30N 52°28' E 004°38'0 0.0
2018-Feb-18 18:00N 52°28' E 004°38'0 0.0
2018-Feb-18 17:24N 52°28' E 004°38'0 0.0
2018-Feb-18 17:00N 52°28' E 004°38'0 0.0
2018-Feb-18 16:00N 52°28' E 004°38'0 0.0
2018-Feb-18 15:27N 52°28' E 004°38'0 0.0
2018-Feb-18 15:00N 52°28' E 004°38'0 0.0
2018-Feb-18 14:30N 52°28' E 004°38'0 0.0
2018-Feb-18 13:57N 52°28' E 004°38'0 0.0
2018-Feb-18 13:30N 52°28' E 004°38'0 0.0
2018-Feb-18 12:57N 52°28' E 004°38'0 0.2
2018-Feb-18 12:30N 52°28' E 004°38'0 0.2
2018-Feb-18 12:00N 52°28' E 004°38'0 0.0
2018-Feb-18 11:30N 52°28' E 004°38'0 0.0
2018-Feb-18 10:57N 52°28' E 004°38'0 0.0
2018-Feb-18 10:30N 52°28' E 004°38'0 0.0
2018-Feb-18 10:00N 52°28' E 004°38'0 0.0
2018-Feb-18 09:30N 52°28' E 004°38'0 0.0
2018-Feb-18 09:00N 52°28' E 004°38'0 0.0
2018-Feb-18 08:30N 52°28' E 004°38'0 0.0
2018-Feb-18 08:00N 52°28' E 004°38'0 0.0
2018-Feb-18 07:30N 52°28' E 004°38'0 0.0
2018-Feb-18 07:00N 52°28' E 004°38'0 0.0
2018-Feb-18 06:30N 52°28' E 004°38'0 0.0
2018-Feb-18 05:57N 52°28' E 004°38'0 0.0
2018-Feb-18 05:30N 52°28' E 004°38'0 0.0
2018-Feb-18 05:00N 52°28' E 004°38'0 0.0
2018-Feb-18 04:30N 52°28' E 004°38'0 0.0
2018-Feb-18 04:00N 52°28' E 004°38'0 0.0
2018-Feb-18 03:30N 52°28' E 004°38'0 0.0
2018-Feb-18 02:57N 52°28' E 004°38'0 0.0
2018-Feb-18 02:30N 52°28' E 004°38'0 0.0
2018-Feb-18 02:00N 52°28' E 004°38'0 0.0
2018-Feb-18 01:30N 52°28' E 004°38'0 0.0
2018-Feb-18 01:00N 52°28' E 004°38'0 0.0
2018-Feb-18 00:30N 52°28' E 004°38'0 0.0
2018-Feb-18 00:00N 52°28' E 004°38'0 0.0
2018-Feb-17 23:30N 52°28' E 004°38'0 0.0
2018-Feb-17 23:00N 52°28' E 004°38'0 0.0
2018-Feb-17 22:30N 52°28' E 004°38'1 1.5
2018-Feb-17 22:00N 52°28' E 004°37'1 1.0
2018-Feb-17 21:30N 52°28' E 004°36'3 5.1
2018-Feb-17 21:01N 52°28' E 004°32'5 9.1
2018-Feb-17 20:30N 52°28' E 004°24'5 9.4
2018-Feb-17 20:01N 52°28' E 004°16'510.4
2018-Feb-17 19:31N 52°29' E 004°08'510.5
2018-Feb-17 19:00N 52°27' E 003°59'510.5
2018-Feb-17 18:30N 52°26' E 003°51'510.5
2018-Feb-17 18:00N 52°25' E 003°43'2111.2
2018-Feb-17 16:07N 52°12' E 003°15'211.7
2018-Feb-17 15:54N 52°10' E 003°12'511.8
2018-Feb-17 15:29N 52°07' E 003°07'3111.8
2018-Feb-17 12:53N 51°43' E 002°35'511.1
2018-Feb-17 12:29N 51°40' E 002°31'510.8
2018-Feb-17 12:00N 51°36' E 002°25'510.2
2018-Feb-17 11:30N 51°32' E 002°20'5 9.5
2018-Feb-17 11:00N 51°28' E 002°16'5 9.1
2018-Feb-17 10:30N 51°24' E 002°12'4 8.6
2018-Feb-17 10:00N 51°20' E 002°09'4 8.5
2018-Feb-17 09:30N 51°16' E 002°06'4 7.7
2018-Feb-17 09:01N 51°13' E 002°02'4 7.9
2018-Feb-17 08:31N 51°11' E 001°57'4 7.8
2018-Feb-17 08:00N 51°09' E 001°52'4 7.7
2018-Feb-17 07:30N 51°06' E 001°47'4 7.8
2018-Feb-17 07:00N 51°03' E 001°43'4 7.9
2018-Feb-17 06:30N 51°00' E 001°39'4 8.3
2018-Feb-17 06:00N 50°57' E 001°34'4 8.8
2018-Feb-17 05:30N 50°54' E 001°30'5 9.4
2018-Feb-17 05:00N 50°50' E 001°27'510.2
2018-Feb-17 04:29N 50°45' E 001°24'29 9.7
2018-Feb-17 01:29N 50°28' E 000°46'8 9.9
2018-Feb-17 00:43N 50°26' E 000°34'210.0
2018-Feb-17 00:29N 50°25' E 000°31'510.3
2018-Feb-16 23:59N 50°24' E 000°23'510.6
2018-Feb-16 23:31N 50°23' E 000°16'611.2
2018-Feb-16 23:00N 50°21' E 000°07'611.5
2018-Feb-16 22:30N 50°19' W 000°02'3612.4
2018-Feb-16 19:35N 50°09' W 000°56'112.3
2018-Feb-16 19:29N 50°09' W 000°58'612.0
2018-Feb-16 19:00N 50°07' W 001°06'611.4
2018-Feb-16 18:30N 50°05' W 001°15'510.7
2018-Feb-16 18:00N 50°04' W 001°23'5 9.8
2018-Feb-16 17:30N 50°03' W 001°30'4 8.8
2018-Feb-16 17:00N 50°01' W 001°37'4 8.1
2018-Feb-16 16:30N 50°00' W 001°43'4 7.2
2018-Feb-16 16:00N 49°59' W 001°48'3 6.9
2018-Feb-16 15:30N 49°58' W 001°54'3 6.3
2018-Feb-16 15:00N 49°57' W 001°58'3 6.0
2018-Feb-16 14:30N 49°57' W 002°03'30 8.0
2018-Feb-16 10:46N 49°48' W 002°47'9710.7
2018-Feb-16 01:42N 49°00' W 004°56'11 9.2
2018-Feb-16 00:31N 48°55' W 005°10'3 8.5
2018-Feb-16 00:12N 48°53' W 005°14'6 8.3
2018-Feb-15 23:31N 48°50' W 005°22'10 7.7
2018-Feb-15 22:11N 48°45' W 005°35'4 7.5
2018-Feb-15 21:38N 48°42' W 005°38'  
2018-Feb-13 04:04N 39°28' W 009°50'4 9.5
2018-Feb-13 03:37N 39°24' W 009°50'1 9.4
2018-Feb-13 03:30N 39°23' W 009°50'5 9.7
2018-Feb-13 03:00N 39°18' W 009°49'5 9.7
2018-Feb-13 02:30N 39°13' W 009°50'5 9.4
2018-Feb-13 02:00N 39°08' W 009°50'5 9.3
2018-Feb-13 01:30N 39°04' W 009°50'5 9.5
2018-Feb-13 01:00N 38°59' W 009°50'5 9.5
2018-Feb-13 00:30N 38°54' W 009°50'5 9.5
2018-Feb-13 00:00N 38°49' W 009°50'5 9.6
2018-Feb-12 23:31N 38°45' W 009°50'5 9.5
2018-Feb-12 23:00N 38°40' W 009°49'5 9.4
2018-Feb-12 22:30N 38°35' W 009°48'5 9.5
2018-Feb-12 22:00N 38°31' W 009°46'5 9.5
2018-Feb-12 21:29N 38°26' W 009°45'5 9.0
2018-Feb-12 20:58N 38°21' W 009°44'5 9.4
2018-Feb-12 20:28N 38°17' W 009°42'7 9.2
2018-Feb-12 19:45N 38°10' W 009°40'3 9.4
2018-Feb-12 19:28N 38°08' W 009°40'5 9.5
2018-Feb-12 18:59N 38°03' W 009°38'5 9.4
2018-Feb-12 18:28N 37°59' W 009°37'8 9.4
2018-Feb-12 17:37N 37°51' W 009°35'1 9.5
2018-Feb-12 17:30N 37°50' W 009°34'8 9.4
2018-Feb-12 16:38N 37°42' W 009°32'1 9.2
2018-Feb-12 16:29N 37°40' W 009°32'214 8.4
2018-Feb-11 15:10N 35°58' W 005°37'1 6.8
2018-Feb-11 14:57N 35°58' W 005°35'3 6.6
2018-Feb-11 14:30N 35°59' W 005°32'4 7.5
2018-Feb-11 14:00N 36°00' W 005°27'4 7.3
2018-Feb-11 13:30N 36°01' W 005°23'3 6.9
2018-Feb-11 13:00N 36°02' W 005°19'3 6.8
2018-Feb-11 12:30N 36°02' W 005°15'  
Track history (hours):
 
Tides and Currents Weather Stations Pressure Air Temp Water Temp Dewpoint Dewpoint Depression Visibility Wind Speed Wind Dir Waves Ship Positions

Cfl Performer

Last reported at 2018-Feb-21 11:00 UTC. Time now 2018-Feb-21 11:48 UTC.
Position N 54°34' E 012°26'.

Length 117 m; draft 3.9 m.

Type: Cargo ship. MMSI: 244989000.

Date/timePositionNaut miles runAvg speedWind from/ knotsBaromVisibWave heightAir tempDewpointWater temp
2018-Feb-21 11:00N 54°34' E 012°26'611.1
2018-Feb-21 10:30N 54°31' E 012°18'510.6
2018-Feb-21 10:00N 54°27' E 012°13'510.5
2018-Feb-21 09:28N 54°24' E 012°05'611.0
2018-Feb-21 08:54N 54°24' E 011°54'511.1
2018-Feb-21 08:30N 54°25' E 011°46'611.2
2018-Feb-21 08:00N 54°27' E 011°38'611.2
2018-Feb-21 07:30N 54°29' E 011°29'511.0
2018-Feb-21 07:00N 54°32' E 011°20'510.5
2018-Feb-21 06:30N 54°34' E 011°12'510.0
2018-Feb-21 06:00N 54°35' E 011°04'611.1
2018-Feb-21 05:30N 54°34' E 010°54'611.7
2018-Feb-21 05:00N 54°34' E 010°44'611.5
2018-Feb-21 04:30N 54°33' E 010°34'611.4
2018-Feb-21 04:00N 54°31' E 010°25'5 9.7
2018-Feb-21 03:28N 54°29' E 010°17'10 3.0
2018-Feb-21 00:13N 54°22' E 010°05'3 7.5
2018-Feb-20 23:46N 54°21' E 009°59'3 3.6
2018-Feb-20 22:50N 54°21' E 009°53'3 8.6
2018-Feb-20 22:30N 54°22' E 009°49'4 8.6
2018-Feb-20 22:00N 54°19' E 009°43'4 7.8
2018-Feb-20 21:30N 54°17' E 009°38'2 3.4
2018-Feb-20 21:00N 54°15' E 009°37'3 6.0
2018-Feb-20 20:30N 54°12' E 009°34'4 8.6
2018-Feb-20 20:00N 54°11' E 009°28'4 8.7
2018-Feb-20 19:30N 54°09' E 009°21'4 8.5
2018-Feb-20 19:00N 54°05' E 009°19'4 8.1
2018-Feb-20 18:30N 54°01' E 009°18'4 8.5
2018-Feb-20 18:00N 53°57' E 009°14'0 1.0
2018-Feb-20 17:30N 53°57' E 009°14'4 7.7
2018-Feb-20 17:01N 53°54' E 009°09'0 0.6
2018-Feb-20 16:30N 53°54' E 009°09'2 4.1
2018-Feb-20 16:00N 53°53' E 009°05'611.6
2018-Feb-20 15:30N 53°51' E 008°56'613.0
2018-Feb-20 15:00N 53°51' E 008°45'713.4
2018-Feb-20 14:30N 53°57' E 008°39'612.8
2018-Feb-20 14:00N 53°58' E 008°28'612.7
2018-Feb-20 13:30N 53°60' E 008°18'510.5
2018-Feb-20 13:00N 53°59' E 008°09'612.6
2018-Feb-20 12:30N 53°58' E 007°58'713.0
2018-Feb-20 11:56N 53°56' E 007°46'10411.6
2018-Feb-20 03:01N 53°27' E 004°58'010.7
2018-Feb-20 03:00N 53°27' E 004°58'2010.2
2018-Feb-20 01:00N 53°12' E 004°34'610.9
2018-Feb-20 00:27N 53°07' E 004°29'510.9
2018-Feb-19 23:59N 53°03' E 004°25'611.1
2018-Feb-19 23:26N 52°57' E 004°20'511.1
2018-Feb-19 23:00N 52°53' E 004°17'610.8
2018-Feb-19 22:29N 52°48' E 004°12'610.9
2018-Feb-19 21:59N 52°43' E 004°08'511.0
2018-Feb-19 21:30N 52°38' E 004°06'510.4
2018-Feb-19 21:00N 52°33' E 004°09'611.2
2018-Feb-19 20:30N 52°31' E 004°17'510.8
2018-Feb-19 20:00N 52°29' E 004°26'510.5
2018-Feb-19 19:30N 52°28' E 004°34'1 2.4
2018-Feb-19 19:00N 52°28' E 004°36'1 2.0
2018-Feb-19 18:30N 52°28' E 004°38'0 0.1
2018-Feb-19 17:59N 52°28' E 004°38'0 0.0
2018-Feb-19 17:29N 52°28' E 004°38'0 0.0
2018-Feb-19 16:59N 52°28' E 004°38'0 0.0
2018-Feb-19 16:29N 52°28' E 004°38'0 0.0
2018-Feb-19 15:59N 52°28' E 004°38'0 0.0
2018-Feb-19 15:29N 52°28' E 004°38'0 0.0
2018-Feb-19 14:59N 52°28' E 004°38'0 0.0
2018-Feb-19 14:29N 52°28' E 004°38'0 0.0
2018-Feb-19 13:59N 52°28' E 004°38'0 0.0
2018-Feb-19 13:29N 52°28' E 004°38'0 0.0
2018-Feb-19 12:59N 52°28' E 004°38'0 0.0
2018-Feb-19 12:29N 52°28' E 004°38'0 0.0
2018-Feb-19 11:59N 52°28' E 004°38'0 0.0
2018-Feb-19 11:29N 52°28' E 004°38'0 0.1
2018-Feb-19 10:59N 52°28' E 004°38'0 0.0
2018-Feb-19 10:29N 52°28' E 004°38'0 0.0
2018-Feb-19 09:15N 52°28' E 004°38'0 0.0
2018-Feb-19 09:00N 52°28' E 004°38'0 0.0
2018-Feb-19 08:24N 52°28' E 004°38'0 0.0
2018-Feb-19 08:00N 52°28' E 004°38'0 0.0
2018-Feb-19 07:30N 52°28' E 004°38'0 0.0
2018-Feb-19 07:00N 52°28' E 004°38'0 0.0
2018-Feb-19 06:30N 52°28' E 004°38'0 0.0
2018-Feb-19 06:00N 52°28' E 004°38'0 0.0
2018-Feb-19 05:30N 52°28' E 004°38'0 0.0
2018-Feb-19 05:00N 52°28' E 004°38'0 0.0
2018-Feb-19 04:30N 52°28' E 004°38'0 0.0
2018-Feb-19 04:00N 52°28' E 004°38'0 0.0
2018-Feb-19 03:30N 52°28' E 004°38'0 0.0
2018-Feb-19 03:00N 52°28' E 004°38'0 0.0
2018-Feb-19 02:30N 52°28' E 004°38'0 0.0
2018-Feb-19 02:00N 52°28' E 004°38'0 0.0
2018-Feb-19 01:27N 52°28' E 004°38'0 0.0
2018-Feb-19 01:00N 52°28' E 004°38'0 0.0
2018-Feb-19 00:30N 52°28' E 004°38'0 0.0
2018-Feb-19 00:00N 52°28' E 004°38'0 0.0
2018-Feb-18 23:30N 52°28' E 004°38'0 0.0
2018-Feb-18 23:00N 52°28' E 004°38'0 0.0
2018-Feb-18 22:30N 52°28' E 004°38'0 0.0
2018-Feb-18 21:57N 52°28' E 004°38'0 0.0
2018-Feb-18 21:30N 52°28' E 004°38'0 0.0
2018-Feb-18 21:00N 52°28' E 004°38'0 0.0
2018-Feb-18 20:30N 52°28' E 004°38'0 0.0
2018-Feb-18 20:00N 52°28' E 004°38'0 0.0
2018-Feb-18 19:27N 52°28' E 004°38'0 0.0
2018-Feb-18 19:00N 52°28' E 004°38'0 0.0
2018-Feb-18 18:30N 52°28' E 004°38'0 0.0
2018-Feb-18 18:00N 52°28' E 004°38'0 0.0
2018-Feb-18 17:24N 52°28' E 004°38'0 0.0
2018-Feb-18 17:00N 52°28' E 004°38'0 0.0
2018-Feb-18 16:00N 52°28' E 004°38'0 0.0
2018-Feb-18 15:27N 52°28' E 004°38'0 0.0
2018-Feb-18 15:00N 52°28' E 004°38'0 0.0
2018-Feb-18 14:30N 52°28' E 004°38'0 0.0
2018-Feb-18 13:57N 52°28' E 004°38'0 0.0
2018-Feb-18 13:30N 52°28' E 004°38'0 0.0
2018-Feb-18 12:57N 52°28' E 004°38'0 0.2
2018-Feb-18 12:30N 52°28' E 004°38'0 0.2
2018-Feb-18 12:00N 52°28' E 004°38'0 0.0
2018-Feb-18 11:30N 52°28' E 004°38'0 0.0
2018-Feb-18 10:57N 52°28' E 004°38'0 0.0
2018-Feb-18 10:30N 52°28' E 004°38'0 0.0
2018-Feb-18 10:00N 52°28' E 004°38'0 0.0
2018-Feb-18 09:30N 52°28' E 004°38'0 0.0
2018-Feb-18 09:00N 52°28' E 004°38'0 0.0
2018-Feb-18 08:30N 52°28' E 004°38'0 0.0
2018-Feb-18 08:00N 52°28' E 004°38'0 0.0
2018-Feb-18 07:30N 52°28' E 004°38'0 0.0
2018-Feb-18 07:00N 52°28' E 004°38'0 0.0
2018-Feb-18 06:30N 52°28' E 004°38'0 0.0
2018-Feb-18 05:57N 52°28' E 004°38'0 0.0
2018-Feb-18 05:30N 52°28' E 004°38'0 0.0
2018-Feb-18 05:00N 52°28' E 004°38'0 0.0
2018-Feb-18 04:30N 52°28' E 004°38'0 0.0
2018-Feb-18 04:00N 52°28' E 004°38'0 0.0
2018-Feb-18 03:30N 52°28' E 004°38'0 0.0
2018-Feb-18 02:57N 52°28' E 004°38'0 0.0
2018-Feb-18 02:30N 52°28' E 004°38'0 0.0
2018-Feb-18 02:00N 52°28' E 004°38'0 0.0
2018-Feb-18 01:30N 52°28' E 004°38'0 0.0
2018-Feb-18 01:00N 52°28' E 004°38'0 0.0
2018-Feb-18 00:30N 52°28' E 004°38'0 0.0
2018-Feb-18 00:00N 52°28' E 004°38'0 0.0
2018-Feb-17 23:30N 52°28' E 004°38'0 0.0
2018-Feb-17 23:00N 52°28' E 004°38'0 0.0
2018-Feb-17 22:30N 52°28' E 004°38'1 1.5
2018-Feb-17 22:00N 52°28' E 004°37'1 1.0
2018-Feb-17 21:30N 52°28' E 004°36'3 5.1
2018-Feb-17 21:01N 52°28' E 004°32'5 9.1
2018-Feb-17 20:30N 52°28' E 004°24'5 9.4
2018-Feb-17 20:01N 52°28' E 004°16'510.4
2018-Feb-17 19:31N 52°29' E 004°08'510.5
2018-Feb-17 19:00N 52°27' E 003°59'510.5
2018-Feb-17 18:30N 52°26' E 003°51'510.5
2018-Feb-17 18:00N 52°25' E 003°43'2111.2
2018-Feb-17 16:07N 52°12' E 003°15'211.7
2018-Feb-17 15:54N 52°10' E 003°12'511.8
2018-Feb-17 15:29N 52°07' E 003°07'3111.8
2018-Feb-17 12:53N 51°43' E 002°35'511.1
2018-Feb-17 12:29N 51°40' E 002°31'510.8
2018-Feb-17 12:00N 51°36' E 002°25'510.2
2018-Feb-17 11:30N 51°32' E 002°20'5 9.5
2018-Feb-17 11:00N 51°28' E 002°16'5 9.1
2018-Feb-17 10:30N 51°24' E 002°12'4 8.6
2018-Feb-17 10:00N 51°20' E 002°09'4 8.5
2018-Feb-17 09:30N 51°16' E 002°06'4 7.7
2018-Feb-17 09:01N 51°13' E 002°02'4 7.9
2018-Feb-17 08:31N 51°11' E 001°57'4 7.8
2018-Feb-17 08:00N 51°09' E 001°52'4 7.7
2018-Feb-17 07:30N 51°06' E 001°47'4 7.8
2018-Feb-17 07:00N 51°03' E 001°43'4 7.9
2018-Feb-17 06:30N 51°00' E 001°39'4 8.3
2018-Feb-17 06:00N 50°57' E 001°34'4 8.8
2018-Feb-17 05:30N 50°54' E 001°30'5 9.4
2018-Feb-17 05:00N 50°50' E 001°27'510.2
2018-Feb-17 04:29N 50°45' E 001°24'29 9.7
2018-Feb-17 01:29N 50°28' E 000°46'8 9.9
2018-Feb-17 00:43N 50°26' E 000°34'210.0
2018-Feb-17 00:29N 50°25' E 000°31'510.3
2018-Feb-16 23:59N 50°24' E 000°23'510.6
2018-Feb-16 23:31N 50°23' E 000°16'611.2
2018-Feb-16 23:00N 50°21' E 000°07'611.5
2018-Feb-16 22:30N 50°19' W 000°02'3612.4
2018-Feb-16 19:35N 50°09' W 000°56'112.3
2018-Feb-16 19:29N 50°09' W 000°58'612.0
2018-Feb-16 19:00N 50°07' W 001°06'611.4
2018-Feb-16 18:30N 50°05' W 001°15'510.7
2018-Feb-16 18:00N 50°04' W 001°23'5 9.8
2018-Feb-16 17:30N 50°03' W 001°30'4 8.8
2018-Feb-16 17:00N 50°01' W 001°37'4 8.1
2018-Feb-16 16:30N 50°00' W 001°43'4 7.2
2018-Feb-16 16:00N 49°59' W 001°48'3 6.9
2018-Feb-16 15:30N 49°58' W 001°54'3 6.3
2018-Feb-16 15:00N 49°57' W 001°58'3 6.0
2018-Feb-16 14:30N 49°57' W 002°03'30 8.0
2018-Feb-16 10:46N 49°48' W 002°47'9710.7
2018-Feb-16 01:42N 49°00' W 004°56'11 9.2
2018-Feb-16 00:31N 48°55' W 005°10'3 8.5
2018-Feb-16 00:12N 48°53' W 005°14'6 8.3
2018-Feb-15 23:31N 48°50' W 005°22'10 7.7
2018-Feb-15 22:11N 48°45' W 005°35'4 7.5
2018-Feb-15 21:38N 48°42' W 005°38'  
2018-Feb-13 04:04N 39°28' W 009°50'4 9.5
2018-Feb-13 03:37N 39°24' W 009°50'1 9.4
2018-Feb-13 03:30N 39°23' W 009°50'5 9.7
2018-Feb-13 03:00N 39°18' W 009°49'5 9.7
2018-Feb-13 02:30N 39°13' W 009°50'5 9.4
2018-Feb-13 02:00N 39°08' W 009°50'5 9.3
2018-Feb-13 01:30N 39°04' W 009°50'5 9.5
2018-Feb-13 01:00N 38°59' W 009°50'5 9.5
2018-Feb-13 00:30N 38°54' W 009°50'5 9.5
2018-Feb-13 00:00N 38°49' W 009°50'5 9.6
2018-Feb-12 23:31N 38°45' W 009°50'5 9.5
2018-Feb-12 23:00N 38°40' W 009°49'5 9.4
2018-Feb-12 22:30N 38°35' W 009°48'5 9.5
2018-Feb-12 22:00N 38°31' W 009°46'5 9.5
2018-Feb-12 21:29N 38°26' W 009°45'5 9.0
2018-Feb-12 20:58N 38°21' W 009°44'5 9.4
2018-Feb-12 20:28N 38°17' W 009°42'7 9.2
2018-Feb-12 19:45N 38°10' W 009°40'3 9.4
2018-Feb-12 19:28N 38°08' W 009°40'5 9.5
2018-Feb-12 18:59N 38°03' W 009°38'5 9.4
2018-Feb-12 18:28N 37°59' W 009°37'8 9.4
2018-Feb-12 17:37N 37°51' W 009°35'1 9.5
2018-Feb-12 17:30N 37°50' W 009°34'8 9.4
2018-Feb-12 16:38N 37°42' W 009°32'1 9.2
2018-Feb-12 16:29N 37°40' W 009°32'214 8.4
2018-Feb-11 15:10N 35°58' W 005°37'1 6.8
2018-Feb-11 14:57N 35°58' W 005°35'3 6.6
2018-Feb-11 14:30N 35°59' W 005°32'4 7.5
2018-Feb-11 14:00N 36°00' W 005°27'4 7.3
2018-Feb-11 13:30N 36°01' W 005°23'3 6.9
2018-Feb-11 13:00N 36°02' W 005°19'3 6.8
2018-Feb-11 12:30N 36°02' W 005°15'  

Dump ship's entire track history